Time;durP1;ratioP1;P1;durP2;ratioP2;P2;SDS_P1;SDS_P2;PMS_P1;PMS_P2;Temp;Humidity;BMP_temperature;BMP_pressure;BME280_temperature;BME280_humidity;BME280_pressure;Samples;Min_cycle;Max_cycle;Signal;HPM_P1;HPM_P2
2021/03/08 15:41:50;;;;;;;69.50;35.33;;;7.40;87.40;;;;;;8411958;27;20602;-75
2021/03/08 15:46:04;;;;;;;79.60;36.47;;;8.20;86.80;;;;;;8346627;28;20482;-73
2021/03/08 15:50:12;;;;;;;88.70;37.80;;;9.50;81.50;;;;;;8346393;28;20453;-74
2021/03/08 15:54:18;;;;;;;76.90;39.20;;;10.10;78.00;;;;;;8350373;28;20942;-74
2021/03/08 15:58:19;;;;;;;78.57;37.13;;;10.30;76.30;;;;;;8339798;28;20472;-75
2021/03/08 16:02:34;;;;;;;71.60;36.77;;;10.40;75.40;;;;;;8353379;28;20492;-74
2021/03/08 16:06:37;;;;;;;70.73;34.73;;;10.40;75.50;;;;;;8354541;28;20442;-76
2021/03/08 16:10:40;;;;;;;72.03;36.60;;;10.50;75.00;;;;;;8348164;28;20469;-75
2021/03/08 16:14:42;;;;;;;74.40;34.90;;;10.50;74.60;;;;;;8349760;28;20442;-76
2021/03/08 16:18:50;;;;;;;76.97;37.63;;;10.30;74.70;;;;;;8361206;28;20568;-74
2021/03/08 16:22:53;;;;;;;100.80;39.20;;;10.20;75.30;;;;;;8342343;28;21916;-76
2021/03/08 16:26:58;;;;;;;83.60;38.43;;;10.10;74.90;;;;;;8348670;28;20831;-74
2021/03/08 16:31:01;;;;;;;93.40;43.50;;;10.10;74.80;;;;;;8333798;28;20822;-76
2021/03/08 16:35:06;;;;;;;77.10;36.70;;;10.20;74.50;;;;;;8348139;28;20450;-75
2021/03/08 16:39:07;;;;;;;73.23;34.23;;;10.20;74.50;;;;;;8350288;28;20519;-73
2021/03/08 16:43:09;;;;;;;89.90;40.43;;;10.10;74.70;;;;;;8331251;28;20529;-73
2021/03/08 16:47:10;;;;;;;92.27;39.00;;;10.10;75.30;;;;;;8350894;28;20461;-72
2021/03/08 16:51:12;;;;;;;80.87;40.00;;;10.00;75.00;;;;;;8317168;28;20449;-73
2021/03/08 16:55:17;;;;;;;86.57;39.60;;;9.90;75.20;;;;;;8311966;28;20211;-73
2021/03/08 16:59:19;;;;;;;71.83;37.30;;;9.70;75.80;;;;;;8320230;28;20518;-72
2021/03/08 17:03:22;;;;;;;79.50;37.57;;;9.60;76.30;;;;;;8328947;28;20463;-73
2021/03/08 17:07:24;;;;;;;76.70;37.73;;;9.50;76.80;;;;;;8325944;28;20446;-72
2021/03/08 17:11:33;;;;;;;80.93;40.90;;;9.40;77.20;;;;;;8326289;28;20537;-73
2021/03/08 17:15:45;;;;;;;81.83;38.37;;;9.30;77.70;;;;;;8325351;28;20600;-73
2021/03/08 17:19:57;;;;;;;86.13;41.40;;;9.20;77.70;;;;;;8320007;28;20827;-72
2021/03/08 17:24:06;;;;;;;94.97;39.80;;;9.10;78.00;;;;;;8323142;28;20449;-73
2021/03/08 17:28:13;;;;;;;82.60;37.97;;;8.90;78.80;;;;;;8307883;28;20521;-76
2021/03/08 17:32:17;;;;;;;80.33;37.27;;;8.90;79.30;;;;;;8330313;28;20445;-75
2021/03/08 17:36:19;;;;;;;83.77;39.37;;;8.80;79.60;;;;;;8329755;28;20448;-74
2021/03/08 17:40:23;;;;;;;96.93;41.10;;;8.70;79.90;;;;;;8312786;28;20229;-73
2021/03/08 17:44:25;;;;;;;85.50;41.08;;;8.60;80.00;;;;;;8319092;28;20534;-73
2021/03/08 17:48:26;;;;;;;105.23;46.83;;;8.50;80.40;;;;;;8310576;28;20205;-73
2021/03/08 17:52:27;;;;;;;87.77;40.87;;;8.50;80.80;;;;;;8327138;28;20464;-74
2021/03/08 17:56:32;;;;;;;99.93;41.00;;;8.40;80.90;;;;;;8323327;28;20213;-74
2021/03/08 18:00:34;;;;;;;136.73;51.10;;;8.40;81.20;;;;;;8322564;28;20465;-75
2021/03/08 18:04:34;;;;;;;155.73;61.37;;;8.30;81.60;;;;;;8318358;28;20310;-74
2021/03/08 18:08:38;;;;;;;122.23;50.27;;;8.30;82.00;;;;;;8293205;28;20463;-72
2021/03/08 18:12:43;;;;;;;91.00;44.60;;;8.20;81.90;;;;;;8316900;28;20450;-74
2021/03/08 18:16:45;;;;;;;131.10;50.50;;;8.20;81.90;;;;;;8319815;28;20447;-74
2021/03/08 18:20:53;;;;;;;94.00;45.00;;;8.20;82.20;;;;;;8322531;28;20219;-74
2021/03/08 18:25:02;;;;;;;93.20;45.10;;;8.10;82.40;;;;;;8322905;28;20446;-76
2021/03/08 18:29:07;;;;;;;107.17;48.20;;;8.10;82.50;;;;;;8318080;28;20455;-74
2021/03/08 18:33:16;;;;;;;89.67;42.80;;;8.10;82.60;;;;;;8318130;28;20765;-74
2021/03/08 18:37:16;;;;;;;106.63;44.57;;;8.00;82.70;;;;;;8326658;28;20860;-74
2021/03/08 18:41:19;;;;;;;114.73;48.57;;;8.00;82.70;;;;;;8321363;28;20222;-74
2021/03/08 18:45:20;;;;;;;95.67;41.80;;;7.90;82.80;;;;;;8321236;28;20199;-75
2021/03/08 18:49:25;;;;;;;96.60;42.40;;;7.90;83.00;;;;;;8321939;28;20539;-73
2021/03/08 18:53:25;;;;;;;84.63;43.57;;;7.90;83.00;;;;;;8308704;28;20453;-73
2021/03/08 18:57:29;;;;;;;111.80;47.07;;;7.80;82.80;;;;;;8323689;28;20443;-75
2021/03/08 19:01:41;;;;;;;103.97;42.50;;;7.70;83.40;;;;;;8322992;28;20273;-75
2021/03/08 19:05:42;;;;;;;96.67;44.23;;;7.60;83.30;;;;;;8313901;28;20439;-75
2021/03/08 19:09:45;;;;;;;103.50;46.00;;;7.50;83.60;;;;;;8319152;28;20486;-76
2021/03/08 19:13:46;;;;;;;97.43;45.33;;;7.40;84.00;;;;;;8325806;28;20338;-75
2021/03/08 19:17:48;;;;;;;121.73;52.33;;;7.30;84.70;;;;;;8328394;28;20508;-75
2021/03/08 19:21:53;;;;;;;112.47;52.70;;;7.10;85.10;;;;;;8324647;28;20462;-75
2021/03/08 19:25:58;;;;;;;114.50;51.33;;;7.00;85.90;;;;;;8315671;28;20529;-75
2021/03/08 19:30:05;;;;;;;110.30;51.00;;;6.80;86.20;;;;;;8313155;28;20478;-75
2021/03/08 19:34:06;;;;;;;111.03;50.03;;;6.70;86.50;;;;;;8317490;28;20455;-75
2021/03/08 19:38:10;;;;;;;105.57;47.47;;;6.60;86.80;;;;;;8320673;28;20468;-75
2021/03/08 19:42:17;;;;;;;114.70;51.33;;;6.50;87.50;;;;;;8322460;28;20481;-75
2021/03/08 19:46:21;;;;;;;102.40;48.13;;;6.40;87.40;;;;;;8328328;28;20526;-75
2021/03/08 19:50:23;;;;;;;105.97;46.27;;;6.30;87.60;;;;;;8321543;28;20441;-75
2021/03/08 19:54:28;;;;;;;99.73;45.77;;;6.20;87.70;;;;;;8320266;28;20474;-76
2021/03/08 19:58:33;;;;;;;121.13;49.67;;;6.10;88.20;;;;;;8325951;28;20496;-75
2021/03/08 20:02:41;;;;;;;116.23;50.33;;;6.00;88.40;;;;;;8321736;28;20948;-75
2021/03/08 20:06:45;;;;;;;107.90;45.20;;;5.90;89.30;;;;;;8314544;28;20446;-74
2021/03/08 20:10:50;;;;;;;104.10;49.63;;;5.80;89.00;;;;;;8297529;28;20493;-76
2021/03/08 20:14:51;;;;;;;111.20;47.50;;;5.70;89.30;;;;;;8307753;28;20194;-76
2021/03/08 20:18:52;;;;;;;117.27;52.40;;;5.70;89.40;;;;;;8317945;28;20493;-75
2021/03/08 20:23:00;;;;;;;122.40;49.83;;;5.70;89.40;;;;;;8314653;28;20281;-75
2021/03/08 20:27:08;;;;;;;115.83;52.20;;;5.70;90.00;;;;;;8325869;28;20191;-73
2021/03/08 20:31:11;;;;;;;112.77;49.43;;;5.60;90.10;;;;;;8329557;28;20981;-73
2021/03/08 20:35:15;;;;;;;109.83;47.10;;;5.60;90.10;;;;;;8340396;28;20473;-73
2021/03/08 20:39:18;;;;;;;127.37;54.13;;;5.70;90.20;;;;;;8304781;28;20485;-73
2021/03/08 20:43:28;;;;;;;109.87;53.00;;;5.70;90.10;;;;;;8319169;28;20477;-74
2021/03/08 20:47:33;;;;;;;126.33;54.80;;;5.60;89.80;;;;;;8312891;28;20454;-73
2021/03/08 20:51:42;;;;;;;129.03;52.30;;;5.60;89.50;;;;;;8329004;28;20455;-74
2021/03/08 20:55:46;;;;;;;127.57;50.87;;;5.60;90.00;;;;;;8326356;28;20511;-75
2021/03/08 20:59:47;;;;;;;108.10;46.93;;;5.50;90.10;;;;;;8311921;28;20541;-74
2021/03/08 21:03:48;;;;;;;117.70;50.93;;;5.40;90.20;;;;;;8311196;28;20206;-74
2021/03/08 21:07:57;;;;;;;146.60;52.53;;;5.40;90.00;;;;;;8328912;28;20256;-74
2021/03/08 21:11:58;;;;;;;128.90;54.30;;;5.40;90.10;;;;;;8321363;28;20192;-76
2021/03/08 21:16:00;;;;;;;125.83;54.00;;;5.30;90.20;;;;;;8312305;28;20441;-75
2021/03/08 21:20:08;;;;;;;144.40;60.30;;;5.20;90.30;;;;;;8330232;28;20473;-75
2021/03/08 21:24:09;;;;;;;148.10;58.63;;;5.20;90.50;;;;;;8326475;28;20445;-74
2021/03/08 21:28:16;;;;;;;143.50;59.23;;;5.20;90.70;;;;;;8330646;28;20518;-74
2021/03/08 21:32:21;;;;;;;135.97;62.13;;;5.20;90.70;;;;;;8330279;28;20461;-72
2021/03/08 21:36:22;;;;;;;129.77;57.67;;;5.30;90.70;;;;;;8337536;28;20480;-74
2021/03/08 21:40:31;;;;;;;143.53;55.53;;;5.30;90.70;;;;;;8318038;28;21059;-73
2021/03/08 21:44:35;;;;;;;137.03;56.07;;;5.30;90.70;;;;;;8317636;28;20951;-75
2021/03/08 21:48:36;;;;;;;133.37;57.20;;;5.30;90.70;;;;;;8328424;28;20949;-74
2021/03/08 21:52:39;;;;;;;135.30;54.80;;;5.30;90.60;;;;;;8305378;28;20204;-74
2021/03/08 21:56:40;;;;;;;122.10;52.90;;;5.40;90.60;;;;;;8322740;28;20188;-74
2021/03/08 22:00:42;;;;;;;120.63;51.50;;;5.40;90.60;;;;;;8328703;28;20473;-74
2021/03/08 22:04:44;;;;;;;125.23;52.13;;;5.50;90.50;;;;;;8327664;28;20449;-73
2021/03/08 22:08:44;;;;;;;114.80;49.73;;;5.50;90.50;;;;;;8322777;28;20471;-74
2021/03/08 22:12:45;;;;;;;119.53;51.90;;;5.60;90.40;;;;;;8328002;28;20438;-74
2021/03/08 22:16:49;;;;;;;125.97;50.70;;;5.60;90.40;;;;;;8318424;28;20214;-74
2021/03/08 22:20:58;;;;;;;117.10;51.10;;;5.60;90.30;;;;;;8329654;28;20345;-74
2021/03/08 22:24:58;;;;;;;118.97;49.93;;;5.60;90.20;;;;;;8311146;28;20457;-74
2021/03/08 22:29:04;;;;;;;127.57;51.17;;;5.70;90.20;;;;;;8324758;28;20458;-75
2021/03/08 22:33:04;;;;;;;118.30;52.77;;;5.70;90.10;;;;;;8317516;28;20462;-73
2021/03/08 22:37:05;;;;;;;129.53;52.50;;;5.80;90.10;;;;;;8328006;28;20453;-73
2021/03/08 22:41:06;;;;;;;111.27;52.27;;;5.80;90.00;;;;;;8325134;28;20234;-73
2021/03/08 22:45:14;;;;;;;126.07;56.10;;;5.80;90.00;;;;;;8326043;28;20307;-73
2021/03/08 22:49:14;;;;;;;122.63;52.60;;;5.80;90.00;;;;;;8325310;28;20462;-73
2021/03/08 22:53:15;;;;;;;134.10;54.23;;;5.90;89.80;;;;;;8326738;28;20449;-74
2021/03/08 22:57:16;;;;;;;113.30;48.00;;;5.80;89.70;;;;;;8326139;28;20223;-73
2021/03/08 23:01:22;;;;;;;123.07;51.17;;;5.80;89.70;;;;;;8321214;28;20566;-73
2021/03/08 23:05:25;;;;;;;105.37;50.30;;;5.80;89.70;;;;;;8320749;28;20476;-73
2021/03/08 23:09:29;;;;;;;123.60;51.43;;;5.70;89.70;;;;;;8321230;28;20843;-73
2021/03/08 23:13:30;;;;;;;117.37;49.80;;;5.70;89.80;;;;;;8325322;28;20894;-73
2021/03/08 23:17:31;;;;;;;139.37;55.00;;;5.60;90.10;;;;;;8320102;28;20198;-73
2021/03/08 23:21:34;;;;;;;120.20;51.73;;;5.60;90.20;;;;;;8321377;28;20221;-72
2021/03/08 23:25:35;;;;;;;134.07;54.00;;;5.60;90.30;;;;;;8310803;28;20269;-73
2021/03/08 23:29:35;;;;;;;112.00;50.57;;;5.60;90.30;;;;;;8327127;28;20449;-73
2021/03/08 23:33:36;;;;;;;126.33;56.33;;;5.60;90.30;;;;;;8324708;28;20203;-73
2021/03/08 23:37:37;;;;;;;120.60;52.30;;;5.60;90.30;;;;;;8324011;28;20198;-73
2021/03/08 23:41:38;;;;;;;124.07;49.10;;;5.60;90.30;;;;;;8317479;28;20317;-73
2021/03/08 23:45:43;;;;;;;137.33;52.60;;;5.60;90.20;;;;;;8323211;28;20244;-74
2021/03/08 23:49:43;;;;;;;132.03;50.77;;;5.60;90.30;;;;;;8323217;28;20527;-74
2021/03/08 23:53:44;;;;;;;117.53;52.23;;;5.60;90.20;;;;;;8321059;28;20684;-74
2021/03/08 23:57:45;;;;;;;118.07;48.50;;;5.60;90.30;;;;;;8320715;28;20443;-74
